sensor_id;sensor_type;location;lat;lon;timestamp;temperature;humidity
18624;DHT22;9441;51.420;7.036;2022-07-05T00:00:50;16.90;1.00
18624;DHT22;9441;51.420;7.036;2022-07-05T00:01:52;16.90;1.00
18624;DHT22;9441;51.420;7.036;2022-07-05T00:02:54;16.80;1.00
18624;DHT22;9441;51.420;7.036;2022-07-05T00:03:55;16.90;1.00
18624;DHT22;9441;51.420;7.036;2022-07-05T00:04:57;16.90;1.00
18624;DHT22;9441;51.420;7.036;2022-07-05T00:05:59;16.80;99.90
18624;DHT22;9441;51.420;7.036;2022-07-05T00:07:03;16.70;1.00
18624;DHT22;9441;51.420;7.036;2022-07-05T00:08:19;16.80;99.90
18624;DHT22;9441;51.420;7.036;2022-07-05T00:09:21;16.80;1.00
18624;DHT22;9441;51.420;7.036;2022-07-05T00:10:22;16.70;99.90
18624;DHT22;9441;51.420;7.036;2022-07-05T00:11:25;16.50;1.00
18624;DHT22;9441;51.420;7.036;2022-07-05T00:12:29;16.50;1.00
18624;DHT22;9441;51.420;7.036;2022-07-05T00:13:31;16.50;99.90
18624;DHT22;9441;51.420;7.036;2022-07-05T00:14:33;16.60;1.00
18624;DHT22;9441;51.420;7.036;2022-07-05T00:15:34;16.60;1.00
18624;DHT22;9441;51.420;7.036;2022-07-05T00:16:36;16.70;1.00
18624;DHT22;9441;51.420;7.036;2022-07-05T00:17:38;16.70;1.00
18624;DHT22;9441;51.420;7.036;2022-07-05T00:18:39;16.70;99.90
18624;DHT22;9441;51.420;7.036;2022-07-05T00:19:42;16.70;69.00
18624;DHT22;9441;51.420;7.036;2022-07-05T00:20:43;16.80;99.90
18624;DHT22;9441;51.420;7.036;2022-07-05T00:21:46;16.70;1.00
18624;DHT22;9441;51.420;7.036;2022-07-05T00:22:48;16.70;1.00
18624;DHT22;9441;51.420;7.036;2022-07-05T00:23:51;16.70;1.00
18624;DHT22;9441;51.420;7.036;2022-07-05T00:24:52;16.70;1.00
18624;DHT22;9441;51.420;7.036;2022-07-05T00:25:54;16.60;1.00
18624;DHT22;9441;51.420;7.036;2022-07-05T00:26:55;16.60;1.00
18624;DHT22;9441;51.420;7.036;2022-07-05T00:27:58;16.60;99.90
18624;DHT22;9441;51.420;7.036;2022-07-05T00:28:59;16.60;12.40
18624;DHT22;9441;51.420;7.036;2022-07-05T00:30:01;16.60;99.90
18624;DHT22;9441;51.420;7.036;2022-07-05T00:31:02;16.70;99.90
18624;DHT22;9441;51.420;7.036;2022-07-05T00:32:05;16.70;66.30
18624;DHT22;9441;51.420;7.036;2022-07-05T00:33:06;16.70;99.90
18624;DHT22;9441;51.420;7.036;2022-07-05T00:34:08;16.70;99.90
18624;DHT22;9441;51.420;7.036;2022-07-05T00:35:10;16.60;99.90
18624;DHT22;9441;51.420;7.036;2022-07-05T00:36:12;16.70;99.90
18624;DHT22;9441;51.420;7.036;2022-07-05T00:37:13;16.60;99.90
18624;DHT22;9441;51.420;7.036;2022-07-05T00:38:17;16.60;99.90
18624;DHT22;9441;51.420;7.036;2022-07-05T00:39:18;16.50;1.00
18624;DHT22;9441;51.420;7.036;2022-07-05T00:40:20;16.30;1.00
18624;DHT22;9441;51.420;7.036;2022-07-05T00:41:22;16.10;99.90
18624;DHT22;9441;51.420;7.036;2022-07-05T00:42:23;16.10;48.50
18624;DHT22;9441;51.420;7.036;2022-07-05T00:43:25;16.10;1.00
18624;DHT22;9441;51.420;7.036;2022-07-05T00:44:29;16.00;1.00
18624;DHT22;9441;51.420;7.036;2022-07-05T00:45:31;16.00;1.00
18624;DHT22;9441;51.420;7.036;2022-07-05T00:46:34;16.10;1.00
18624;DHT22;9441;51.420;7.036;2022-07-05T00:47:35;16.10;1.00
18624;DHT22;9441;51.420;7.036;2022-07-05T00:48:37;16.10;1.00
18624;DHT22;9441;51.420;7.036;2022-07-05T00:49:41;16.10;1.00
18624;DHT22;9441;51.420;7.036;2022-07-05T00:50:42;16.10;1.00
18624;DHT22;9441;51.420;7.036;2022-07-05T00:51:44;16.00;1.00
18624;DHT22;9441;51.420;7.036;2022-07-05T00:52:46;16.00;1.00
18624;DHT22;9441;51.420;7.036;2022-07-05T00:53:50;15.80;1.00
18624;DHT22;9441;51.420;7.036;2022-07-05T00:54:51;15.90;1.00
18624;DHT22;9441;51.420;7.036;2022-07-05T00:55:54;16.00;1.00
18624;DHT22;9441;51.420;7.036;2022-07-05T00:56:55;16.00;1.00
18624;DHT22;9441;51.420;7.036;2022-07-05T00:57:57;15.90;1.00
18624;DHT22;9441;51.420;7.036;2022-07-05T00:59:00;15.90;1.00
18624;DHT22;9441;51.420;7.036;2022-07-05T01:00:02;15.80;1.00
18624;DHT22;9441;51.420;7.036;2022-07-05T01:01:06;15.80;1.00
18624;DHT22;9441;51.420;7.036;2022-07-05T01:02:07;15.90;1.00
18624;DHT22;9441;51.420;7.036;2022-07-05T01:03:10;15.90;99.90
18624;DHT22;9441;51.420;7.036;2022-07-05T01:04:13;15.90;99.90
18624;DHT22;9441;51.420;7.036;2022-07-05T01:05:14;15.90;99.90
18624;DHT22;9441;51.420;7.036;2022-07-05T01:06:17;15.90;99.90
18624;DHT22;9441;51.420;7.036;2022-07-05T01:07:20;15.70;1.00
18624;DHT22;9441;51.420;7.036;2022-07-05T01:08:23;15.80;99.90
18624;DHT22;9441;51.420;7.036;2022-07-05T01:09:26;15.90;99.90
18624;DHT22;9441;51.420;7.036;2022-07-05T01:10:29;16.00;99.90
18624;DHT22;9441;51.420;7.036;2022-07-05T01:11:32;16.00;99.90
18624;DHT22;9441;51.420;7.036;2022-07-05T01:12:33;15.70;99.90
18624;DHT22;9441;51.420;7.036;2022-07-05T01:13:36;15.60;99.90
18624;DHT22;9441;51.420;7.036;2022-07-05T01:14:37;15.50;99.90
18624;DHT22;9441;51.420;7.036;2022-07-05T01:15:40;15.60;99.90
18624;DHT22;9441;51.420;7.036;2022-07-05T01:16:42;15.60;99.90
18624;DHT22;9441;51.420;7.036;2022-07-05T01:17:44;15.60;99.90
18624;DHT22;9441;51.420;7.036;2022-07-05T01:18:46;15.80;99.90
18624;DHT22;9441;51.420;7.036;2022-07-05T01:19:48;15.80;99.90
18624;DHT22;9441;51.420;7.036;2022-07-05T01:20:50;15.90;99.90
18624;DHT22;9441;51.420;7.036;2022-07-05T01:21:52;16.00;99.90
18624;DHT22;9441;51.420;7.036;2022-07-05T01:22:56;16.00;99.90
18624;DHT22;9441;51.420;7.036;2022-07-05T01:24:00;15.80;99.90
18624;DHT22;9441;51.420;7.036;2022-07-05T01:25:02;15.80;99.90
18624;DHT22;9441;51.420;7.036;2022-07-05T01:26:07;15.90;99.90
18624;DHT22;9441;51.420;7.036;2022-07-05T01:27:08;16.00;99.90
18624;DHT22;9441;51.420;7.036;2022-07-05T01:28:10;16.10;99.90
18624;DHT22;9441;51.420;7.036;2022-07-05T01:29:12;15.90;99.90
18624;DHT22;9441;51.420;7.036;2022-07-05T01:30:14;15.90;99.90
18624;DHT22;9441;51.420;7.036;2022-07-05T01:31:16;16.00;99.90
18624;DHT22;9441;51.420;7.036;2022-07-05T01:32:18;16.10;99.90
18624;DHT22;9441;51.420;7.036;2022-07-05T01:33:27;16.20;99.90
18624;DHT22;9441;51.420;7.036;2022-07-05T01:34:29;16.20;99.90
18624;DHT22;9441;51.420;7.036;2022-07-05T01:35:30;16.30;99.90
18624;DHT22;9441;51.420;7.036;2022-07-05T01:36:33;16.30;99.90
18624;DHT22;9441;51.420;7.036;2022-07-05T01:37:35;16.20;1.00
18624;DHT22;9441;51.420;7.036;2022-07-05T01:38:38;16.10;1.00
18624;DHT22;9441;51.420;7.036;2022-07-05T01:39:40;16.10;99.90
18624;DHT22;9441;51.420;7.036;2022-07-05T01:40:42;16.10;99.90
18624;DHT22;9441;51.420;7.036;2022-07-05T01:41:43;15.90;99.90
18624;DHT22;9441;51.420;7.036;2022-07-05T01:42:46;16.00;99.90
18624;DHT22;9441;51.420;7.036;2022-07-05T01:43:47;16.10;99.90
18624;DHT22;9441;51.420;7.036;2022-07-05T01:44:49;16.10;99.90
18624;DHT22;9441;51.420;7.036;2022-07-05T01:45:50;16.10;99.90
18624;DHT22;9441;51.420;7.036;2022-07-05T01:46:57;16.20;99.90
18624;DHT22;9441;51.420;7.036;2022-07-05T01:48:01;16.30;99.90
18624;DHT22;9441;51.420;7.036;2022-07-05T01:49:05;16.30;99.90
18624;DHT22;9441;51.420;7.036;2022-07-05T01:50:08;16.30;99.90
18624;DHT22;9441;51.420;7.036;2022-07-05T01:51:18;15.90;1.00
18624;DHT22;9441;51.420;7.036;2022-07-05T01:52:21;15.60;88.80
18624;DHT22;9441;51.420;7.036;2022-07-05T01:53:28;15.60;99.90
18624;DHT22;9441;51.420;7.036;2022-07-05T01:54:31;15.70;99.90
18624;DHT22;9441;51.420;7.036;2022-07-05T01:55:33;15.90;99.90
18624;DHT22;9441;51.420;7.036;2022-07-05T01:56:34;16.00;99.90
18624;DHT22;9441;51.420;7.036;2022-07-05T01:57:39;16.20;99.90
18624;DHT22;9441;51.420;7.036;2022-07-05T01:58:40;16.20;99.90
18624;DHT22;9441;51.420;7.036;2022-07-05T01:59:43;16.30;99.90
18624;DHT22;9441;51.420;7.036;2022-07-05T02:00:45;16.40;99.90
18624;DHT22;9441;51.420;7.036;2022-07-05T02:01:48;16.40;99.90
18624;DHT22;9441;51.420;7.036;2022-07-05T02:02:49;16.40;99.90
18624;DHT22;9441;51.420;7.036;2022-07-05T02:03:51;16.30;1.00
18624;DHT22;9441;51.420;7.036;2022-07-05T02:04:53;16.30;1.00
18624;DHT22;9441;51.420;7.036;2022-07-05T02:05:56;16.30;1.00
18624;DHT22;9441;51.420;7.036;2022-07-05T02:06:57;16.30;1.00
18624;DHT22;9441;51.420;7.036;2022-07-05T02:07:59;16.30;1.00
18624;DHT22;9441;51.420;7.036;2022-07-05T02:09:01;16.20;99.90
18624;DHT22;9441;51.420;7.036;2022-07-05T02:10:05;16.20;1.00
18624;DHT22;9441;51.420;7.036;2022-07-05T02:11:07;15.90;99.90
18624;DHT22;9441;51.420;7.036;2022-07-05T02:12:10;15.70;1.00
18624;DHT22;9441;51.420;7.036;2022-07-05T02:13:12;15.60;99.90
18624;DHT22;9441;51.420;7.036;2022-07-05T02:14:14;15.50;99.90
18624;DHT22;9441;51.420;7.036;2022-07-05T02:15:17;15.30;99.90
18624;DHT22;9441;51.420;7.036;2022-07-05T02:16:22;15.40;99.90
18624;DHT22;9441;51.420;7.036;2022-07-05T02:17:25;15.60;99.90
18624;DHT22;9441;51.420;7.036;2022-07-05T02:18:27;15.70;99.90
18624;DHT22;9441;51.420;7.036;2022-07-05T02:19:31;15.70;99.90
18624;DHT22;9441;51.420;7.036;2022-07-05T02:20:35;15.80;99.90
18624;DHT22;9441;51.420;7.036;2022-07-05T02:21:38;15.70;99.90
18624;DHT22;9441;51.420;7.036;2022-07-05T02:22:44;15.50;99.90
18624;DHT22;9441;51.420;7.036;2022-07-05T02:23:46;15.50;99.90
18624;DHT22;9441;51.420;7.036;2022-07-05T02:24:49;15.50;99.90
18624;DHT22;9441;51.420;7.036;2022-07-05T02:25:56;15.60;99.90
18624;DHT22;9441;51.420;7.036;2022-07-05T02:26:59;15.70;99.90
18624;DHT22;9441;51.420;7.036;2022-07-05T02:28:01;15.70;99.90
18624;DHT22;9441;51.420;7.036;2022-07-05T02:29:04;15.60;99.90
18624;DHT22;9441;51.420;7.036;2022-07-05T02:30:07;15.50;99.90
18624;DHT22;9441;51.420;7.036;2022-07-05T02:31:14;15.40;99.90
18624;DHT22;9441;51.420;7.036;2022-07-05T02:32:17;15.50;99.90
18624;DHT22;9441;51.420;7.036;2022-07-05T02:33:19;15.50;99.90
18624;DHT22;9441;51.420;7.036;2022-07-05T02:34:21;15.30;99.90
18624;DHT22;9441;51.420;7.036;2022-07-05T02:35:24;15.50;99.90
18624;DHT22;9441;51.420;7.036;2022-07-05T02:36:25;15.40;99.90
18624;DHT22;9441;51.420;7.036;2022-07-05T02:37:28;15.40;99.90
18624;DHT22;9441;51.420;7.036;2022-07-05T02:38:29;15.30;99.90
18624;DHT22;9441;51.420;7.036;2022-07-05T02:39:32;15.40;99.90
18624;DHT22;9441;51.420;7.036;2022-07-05T02:40:35;15.20;99.90
18624;DHT22;9441;51.420;7.036;2022-07-05T02:41:39;15.20;99.90
18624;DHT22;9441;51.420;7.036;2022-07-05T02:42:41;15.20;99.90
18624;DHT22;9441;51.420;7.036;2022-07-05T02:43:45;15.00;99.90
18624;DHT22;9441;51.420;7.036;2022-07-05T02:44:49;14.80;99.90
18624;DHT22;9441;51.420;7.036;2022-07-05T02:45:52;14.70;99.90
18624;DHT22;9441;51.420;7.036;2022-07-05T02:46:55;14.80;99.90
18624;DHT22;9441;51.420;7.036;2022-07-05T02:47:57;14.80;99.90
18624;DHT22;9441;51.420;7.036;2022-07-05T02:49:01;14.70;99.90
18624;DHT22;9441;51.420;7.036;2022-07-05T02:50:07;14.90;99.90
18624;DHT22;9441;51.420;7.036;2022-07-05T02:51:11;15.10;99.90
18624;DHT22;9441;51.420;7.036;2022-07-05T02:52:13;15.10;99.90
18624;DHT22;9441;51.420;7.036;2022-07-05T02:53:15;15.00;99.90
18624;DHT22;9441;51.420;7.036;2022-07-05T02:54:17;15.00;99.90
18624;DHT22;9441;51.420;7.036;2022-07-05T02:55:19;15.10;99.90
18624;DHT22;9441;51.420;7.036;2022-07-05T02:56:21;15.20;99.90
18624;DHT22;9441;51.420;7.036;2022-07-05T02:57:25;15.20;99.90
18624;DHT22;9441;51.420;7.036;2022-07-05T02:58:26;15.20;99.90
18624;DHT22;9441;51.420;7.036;2022-07-05T02:59:28;15.20;99.90
18624;DHT22;9441;51.420;7.036;2022-07-05T03:00:31;15.20;99.90
18624;DHT22;9441;51.420;7.036;2022-07-05T03:01:34;15.30;99.90
18624;DHT22;9441;51.420;7.036;2022-07-05T03:02:40;15.10;99.90
18624;DHT22;9441;51.420;7.036;2022-07-05T03:03:43;15.20;99.90
18624;DHT22;9441;51.420;7.036;2022-07-05T03:04:45;15.30;99.90
18624;DHT22;9441;51.420;7.036;2022-07-05T03:05:46;15.50;99.90
18624;DHT22;9441;51.420;7.036;2022-07-05T03:06:49;15.50;99.90
18624;DHT22;9441;51.420;7.036;2022-07-05T03:07:50;15.30;99.90
18624;DHT22;9441;51.420;7.036;2022-07-05T03:08:52;15.20;99.90
18624;DHT22;9441;51.420;7.036;2022-07-05T03:09:53;15.30;99.90
18624;DHT22;9441;51.420;7.036;2022-07-05T03:10:57;15.40;99.90
18624;DHT22;9441;51.420;7.036;2022-07-05T03:11:58;15.50;99.90
18624;DHT22;9441;51.420;7.036;2022-07-05T03:13:01;15.60;99.90
18624;DHT22;9441;51.420;7.036;2022-07-05T03:14:02;15.60;99.90
18624;DHT22;9441;51.420;7.036;2022-07-05T03:15:06;15.50;99.90
18624;DHT22;9441;51.420;7.036;2022-07-05T03:16:07;15.50;99.90
18624;DHT22;9441;51.420;7.036;2022-07-05T03:17:09;15.20;99.90
18624;DHT22;9441;51.420;7.036;2022-07-05T03:18:11;15.20;99.90
18624;DHT22;9441;51.420;7.036;2022-07-05T03:19:13;15.30;99.90
18624;DHT22;9441;51.420;7.036;2022-07-05T03:20:14;15.40;99.90
18624;DHT22;9441;51.420;7.036;2022-07-05T03:21:16;15.60;99.90
18624;DHT22;9441;51.420;7.036;2022-07-05T03:22:17;15.70;99.90
18624;DHT22;9441;51.420;7.036;2022-07-05T03:23:19;15.50;99.90
18624;DHT22;9441;51.420;7.036;2022-07-05T03:24:27;15.30;99.90
18624;DHT22;9441;51.420;7.036;2022-07-05T03:25:28;15.30;99.90
18624;DHT22;9441;51.420;7.036;2022-07-05T03:26:32;15.50;99.90
18624;DHT22;9441;51.420;7.036;2022-07-05T03:27:33;15.50;99.90
18624;DHT22;9441;51.420;7.036;2022-07-05T03:28:37;15.60;99.90
18624;DHT22;9441;51.420;7.036;2022-07-05T03:29:39;15.60;99.90
18624;DHT22;9441;51.420;7.036;2022-07-05T03:30:41;15.50;99.90
18624;DHT22;9441;51.420;7.036;2022-07-05T03:31:42;15.40;99.90
18624;DHT22;9441;51.420;7.036;2022-07-05T03:32:45;15.40;99.90
18624;DHT22;9441;51.420;7.036;2022-07-05T03:33:46;15.50;99.90
18624;DHT22;9441;51.420;7.036;2022-07-05T03:34:49;15.50;99.90
18624;DHT22;9441;51.420;7.036;2022-07-05T03:35:52;15.30;99.90
18624;DHT22;9441;51.420;7.036;2022-07-05T03:36:54;15.20;99.90
18624;DHT22;9441;51.420;7.036;2022-07-05T03:37:57;15.20;99.90
18624;DHT22;9441;51.420;7.036;2022-07-05T03:38:58;15.20;99.90
18624;DHT22;9441;51.420;7.036;2022-07-05T03:40:00;14.90;99.90
18624;DHT22;9441;51.420;7.036;2022-07-05T03:41:02;14.80;99.90
18624;DHT22;9441;51.420;7.036;2022-07-05T03:42:05;14.90;99.90
18624;DHT22;9441;51.420;7.036;2022-07-05T03:43:06;15.00;99.90
18624;DHT22;9441;51.420;7.036;2022-07-05T03:44:12;15.00;99.90
18624;DHT22;9441;51.420;7.036;2022-07-05T03:45:14;15.10;99.90
18624;DHT22;9441;51.420;7.036;2022-07-05T03:46:16;15.20;99.90
18624;DHT22;9441;51.420;7.036;2022-07-05T03:47:19;15.20;99.90
18624;DHT22;9441;51.420;7.036;2022-07-05T03:48:22;15.30;99.90
18624;DHT22;9441;51.420;7.036;2022-07-05T03:49:25;15.40;99.90
18624;DHT22;9441;51.420;7.036;2022-07-05T03:50:28;15.40;99.90
18624;DHT22;9441;51.420;7.036;2022-07-05T03:51:29;15.50;99.90
18624;DHT22;9441;51.420;7.036;2022-07-05T03:52:33;15.50;99.90
18624;DHT22;9441;51.420;7.036;2022-07-05T03:53:34;15.50;99.90
18624;DHT22;9441;51.420;7.036;2022-07-05T03:54:38;15.60;99.90
18624;DHT22;9441;51.420;7.036;2022-07-05T03:55:41;15.50;99.90
18624;DHT22;9441;51.420;7.036;2022-07-05T03:56:44;15.30;99.90
18624;DHT22;9441;51.420;7.036;2022-07-05T03:57:47;15.30;99.90
18624;DHT22;9441;51.420;7.036;2022-07-05T03:58:51;15.30;99.90
18624;DHT22;9441;51.420;7.036;2022-07-05T03:59:54;15.30;99.90
18624;DHT22;9441;51.420;7.036;2022-07-05T04:00:57;15.20;99.90
18624;DHT22;9441;51.420;7.036;2022-07-05T04:02:01;15.10;99.90
18624;DHT22;9441;51.420;7.036;2022-07-05T04:03:03;15.20;99.90
18624;DHT22;9441;51.420;7.036;2022-07-05T04:04:06;15.20;99.90
18624;DHT22;9441;51.420;7.036;2022-07-05T04:05:07;15.10;99.90
18624;DHT22;9441;51.420;7.036;2022-07-05T04:06:10;15.30;99.90
18624;DHT22;9441;51.420;7.036;2022-07-05T04:07:11;15.10;99.90
18624;DHT22;9441;51.420;7.036;2022-07-05T04:08:14;14.90;99.90
18624;DHT22;9441;51.420;7.036;2022-07-05T04:09:19;14.80;99.90
18624;DHT22;9441;51.420;7.036;2022-07-05T04:10:23;14.90;99.90
18624;DHT22;9441;51.420;7.036;2022-07-05T04:11:24;14.80;99.90
18624;DHT22;9441;51.420;7.036;2022-07-05T04:12:28;14.70;99.90
18624;DHT22;9441;51.420;7.036;2022-07-05T04:13:29;14.70;99.90
18624;DHT22;9441;51.420;7.036;2022-07-05T04:14:32;14.70;99.90
18624;DHT22;9441;51.420;7.036;2022-07-05T04:15:35;14.90;99.90
18624;DHT22;9441;51.420;7.036;2022-07-05T04:16:38;15.00;99.90
18624;DHT22;9441;51.420;7.036;2022-07-05T04:17:47;15.00;99.90
18624;DHT22;9441;51.420;7.036;2022-07-05T04:18:49;15.10;99.90
18624;DHT22;9441;51.420;7.036;2022-07-05T04:19:50;15.20;99.90
18624;DHT22;9441;51.420;7.036;2022-07-05T04:20:53;15.30;99.90
18624;DHT22;9441;51.420;7.036;2022-07-05T04:21:55;15.30;99.90
18624;DHT22;9441;51.420;7.036;2022-07-05T04:22:57;15.40;99.90
18624;DHT22;9441;51.420;7.036;2022-07-05T04:24:02;15.50;99.90
18624;DHT22;9441;51.420;7.036;2022-07-05T04:25:09;15.50;99.90
18624;DHT22;9441;51.420;7.036;2022-07-05T04:26:32;15.50;99.90
18624;DHT22;9441;51.420;7.036;2022-07-05T04:27:37;15.50;99.90
18624;DHT22;9441;51.420;7.036;2022-07-05T04:28:44;15.50;99.90
18624;DHT22;9441;51.420;7.036;2022-07-05T04:29:58;15.50;99.90
18624;DHT22;9441;51.420;7.036;2022-07-05T04:31:12;15.50;99.90
18624;DHT22;9441;51.420;7.036;2022-07-05T04:32:21;15.40;99.90
18624;DHT22;9441;51.420;7.036;2022-07-05T04:33:23;15.40;99.90
18624;DHT22;9441;51.420;7.036;2022-07-05T04:34:28;15.50;99.90
18624;DHT22;9441;51.420;7.036;2022-07-05T04:35:30;15.50;99.90
18624;DHT22;9441;51.420;7.036;2022-07-05T04:36:32;15.50;99.90
18624;DHT22;9441;51.420;7.036;2022-07-05T04:37:35;15.40;99.90
18624;DHT22;9441;51.420;7.036;2022-07-05T04:38:36;15.50;99.90
18624;DHT22;9441;51.420;7.036;2022-07-05T04:39:39;15.40;99.90
18624;DHT22;9441;51.420;7.036;2022-07-05T04:40:43;15.50;99.90
18624;DHT22;9441;51.420;7.036;2022-07-05T04:41:45;15.50;99.90
18624;DHT22;9441;51.420;7.036;2022-07-05T04:42:47;15.50;99.90
18624;DHT22;9441;51.420;7.036;2022-07-05T04:43:51;15.50;99.90
18624;DHT22;9441;51.420;7.036;2022-07-05T04:44:52;15.70;99.90
18624;DHT22;9441;51.420;7.036;2022-07-05T04:45:54;15.70;99.90
18624;DHT22;9441;51.420;7.036;2022-07-05T04:46:57;15.70;99.90
18624;DHT22;9441;51.420;7.036;2022-07-05T04:47:59;15.80;99.90
18624;DHT22;9441;51.420;7.036;2022-07-05T04:49:02;15.90;99.90
18624;DHT22;9441;51.420;7.036;2022-07-05T04:50:05;15.80;99.90
18624;DHT22;9441;51.420;7.036;2022-07-05T04:51:07;15.90;99.90
18624;DHT22;9441;51.420;7.036;2022-07-05T04:52:09;15.80;99.90
18624;DHT22;9441;51.420;7.036;2022-07-05T04:53:10;15.90;99.90
18624;DHT22;9441;51.420;7.036;2022-07-05T04:54:13;15.90;99.90
18624;DHT22;9441;51.420;7.036;2022-07-05T04:55:14;16.00;99.90
18624;DHT22;9441;51.420;7.036;2022-07-05T04:56:16;16.00;99.90
18624;DHT22;9441;51.420;7.036;2022-07-05T04:57:17;16.00;99.90
18624;DHT22;9441;51.420;7.036;2022-07-05T04:58:19;15.90;99.90
18624;DHT22;9441;51.420;7.036;2022-07-05T04:59:20;16.00;99.90
18624;DHT22;9441;51.420;7.036;2022-07-05T05:00:22;16.00;99.90
18624;DHT22;9441;51.420;7.036;2022-07-05T05:01:23;16.00;99.90
18624;DHT22;9441;51.420;7.036;2022-07-05T05:02:27;16.00;99.90
18624;DHT22;9441;51.420;7.036;2022-07-05T05:03:28;15.90;99.90
18624;DHT22;9441;51.420;7.036;2022-07-05T05:04:30;15.90;99.90
18624;DHT22;9441;51.420;7.036;2022-07-05T05:05:31;15.90;99.90
18624;DHT22;9441;51.420;7.036;2022-07-05T05:06:33;16.00;99.90
18624;DHT22;9441;51.420;7.036;2022-07-05T05:07:34;16.00;99.90
18624;DHT22;9441;51.420;7.036;2022-07-05T05:08:38;16.10;99.90
18624;DHT22;9441;51.420;7.036;2022-07-05T05:09:39;16.10;99.90
18624;DHT22;9441;51.420;7.036;2022-07-05T05:10:41;16.10;99.90
18624;DHT22;9441;51.420;7.036;2022-07-05T05:11:42;16.10;99.90
18624;DHT22;9441;51.420;7.036;2022-07-05T05:12:45;16.20;99.90
18624;DHT22;9441;51.420;7.036;2022-07-05T05:13:46;16.20;99.90
18624;DHT22;9441;51.420;7.036;2022-07-05T05:14:48;16.20;99.90
18624;DHT22;9441;51.420;7.036;2022-07-05T05:15:49;16.30;99.90
18624;DHT22;9441;51.420;7.036;2022-07-05T05:16:51;16.30;99.90
18624;DHT22;9441;51.420;7.036;2022-07-05T05:17:54;16.30;99.90
18624;DHT22;9441;51.420;7.036;2022-07-05T05:18:56;16.20;99.90
18624;DHT22;9441;51.420;7.036;2022-07-05T05:19:58;16.20;99.90
18624;DHT22;9441;51.420;7.036;2022-07-05T05:20:59;16.40;99.90
18624;DHT22;9441;51.420;7.036;2022-07-05T05:22:01;16.40;99.90
18624;DHT22;9441;51.420;7.036;2022-07-05T05:23:02;16.40;99.90
18624;DHT22;9441;51.420;7.036;2022-07-05T05:24:05;16.50;99.90
18624;DHT22;9441;51.420;7.036;2022-07-05T05:25:08;16.60;99.90
18624;DHT22;9441;51.420;7.036;2022-07-05T05:26:10;16.50;99.90
18624;DHT22;9441;51.420;7.036;2022-07-05T05:27:11;16.60;99.90
18624;DHT22;9441;51.420;7.036;2022-07-05T05:28:13;16.60;99.90
18624;DHT22;9441;51.420;7.036;2022-07-05T05:29:14;16.60;99.90
18624;DHT22;9441;51.420;7.036;2022-07-05T05:30:17;16.60;99.90
18624;DHT22;9441;51.420;7.036;2022-07-05T05:31:18;16.70;99.90
18624;DHT22;9441;51.420;7.036;2022-07-05T05:32:21;16.80;99.90
18624;DHT22;9441;51.420;7.036;2022-07-05T05:33:23;16.80;99.90
18624;DHT22;9441;51.420;7.036;2022-07-05T05:34:25;16.80;99.90
18624;DHT22;9441;51.420;7.036;2022-07-05T05:35:26;16.80;99.90
18624;DHT22;9441;51.420;7.036;2022-07-05T05:36:28;16.90;99.90
18624;DHT22;9441;51.420;7.036;2022-07-05T05:37:30;16.90;99.90
18624;DHT22;9441;51.420;7.036;2022-07-05T05:38:32;16.90;99.90
18624;DHT22;9441;51.420;7.036;2022-07-05T05:39:33;17.00;99.90
18624;DHT22;9441;51.420;7.036;2022-07-05T05:40:35;17.00;99.90
18624;DHT22;9441;51.420;7.036;2022-07-05T05:41:38;16.90;99.90
18624;DHT22;9441;51.420;7.036;2022-07-05T05:42:40;16.90;99.90
18624;DHT22;9441;51.420;7.036;2022-07-05T05:43:41;16.90;99.90
18624;DHT22;9441;51.420;7.036;2022-07-05T05:44:43;17.00;99.90
18624;DHT22;9441;51.420;7.036;2022-07-05T05:45:45;17.00;99.90
18624;DHT22;9441;51.420;7.036;2022-07-05T05:46:47;17.00;99.90
18624;DHT22;9441;51.420;7.036;2022-07-05T05:47:49;17.10;99.90
18624;DHT22;9441;51.420;7.036;2022-07-05T05:48:53;17.20;99.90
18624;DHT22;9441;51.420;7.036;2022-07-05T05:49:54;17.30;99.90
18624;DHT22;9441;51.420;7.036;2022-07-05T05:50:56;17.30;99.90
18624;DHT22;9441;51.420;7.036;2022-07-05T05:51:57;17.30;99.90
18624;DHT22;9441;51.420;7.036;2022-07-05T05:53:00;17.40;99.90
18624;DHT22;9441;51.420;7.036;2022-07-05T05:54:01;17.40;99.90
18624;DHT22;9441;51.420;7.036;2022-07-05T05:55:04;17.40;99.90
18624;DHT22;9441;51.420;7.036;2022-07-05T05:56:06;17.40;99.90
18624;DHT22;9441;51.420;7.036;2022-07-05T05:57:08;17.50;99.90
18624;DHT22;9441;51.420;7.036;2022-07-05T05:58:11;17.50;99.90
18624;DHT22;9441;51.420;7.036;2022-07-05T05:59:13;17.60;99.90
18624;DHT22;9441;51.420;7.036;2022-07-05T06:00:15;17.60;1.00
18624;DHT22;9441;51.420;7.036;2022-07-05T06:01:17;17.60;1.00
18624;DHT22;9441;51.420;7.036;2022-07-05T06:02:18;17.70;1.00
18624;DHT22;9441;51.420;7.036;2022-07-05T06:03:24;17.70;1.00
18624;DHT22;9441;51.420;7.036;2022-07-05T06:04:28;17.70;99.90
18624;DHT22;9441;51.420;7.036;2022-07-05T06:05:29;17.70;99.90
18624;DHT22;9441;51.420;7.036;2022-07-05T06:06:31;17.70;1.00
18624;DHT22;9441;51.420;7.036;2022-07-05T06:07:43;17.80;1.00
18624;DHT22;9441;51.420;7.036;2022-07-05T06:08:45;17.90;21.70
18624;DHT22;9441;51.420;7.036;2022-07-05T06:09:48;17.90;99.90
18624;DHT22;9441;51.420;7.036;2022-07-05T06:10:49;17.80;99.90
18624;DHT22;9441;51.420;7.036;2022-07-05T06:11:51;17.60;1.00
18624;DHT22;9441;51.420;7.036;2022-07-05T06:12:53;17.60;99.90
18624;DHT22;9441;51.420;7.036;2022-07-05T06:13:55;17.70;1.00
18624;DHT22;9441;51.420;7.036;2022-07-05T06:14:56;17.60;1.00
18624;DHT22;9441;51.420;7.036;2022-07-05T06:15:58;17.70;99.90
18624;DHT22;9441;51.420;7.036;2022-07-05T06:16:59;17.80;99.90
18624;DHT22;9441;51.420;7.036;2022-07-05T06:18:02;18.00;99.90
18624;DHT22;9441;51.420;7.036;2022-07-05T06:19:04;18.10;99.90
18624;DHT22;9441;51.420;7.036;2022-07-05T06:20:09;18.10;26.60
18624;DHT22;9441;51.420;7.036;2022-07-05T06:21:11;18.10;13.30
18624;DHT22;9441;51.420;7.036;2022-07-05T06:22:13;18.30;99.90
18624;DHT22;9441;51.420;7.036;2022-07-05T06:23:15;18.30;1.00
18624;DHT22;9441;51.420;7.036;2022-07-05T06:24:16;18.40;1.00
18624;DHT22;9441;51.420;7.036;2022-07-05T06:25:18;18.50;1.00
18624;DHT22;9441;51.420;7.036;2022-07-05T06:26:20;18.40;1.00
18624;DHT22;9441;51.420;7.036;2022-07-05T06:27:22;18.50;1.00
18624;DHT22;9441;51.420;7.036;2022-07-05T06:28:23;18.30;99.90
18624;DHT22;9441;51.420;7.036;2022-07-05T06:29:25;18.30;84.80
18624;DHT22;9441;51.420;7.036;2022-07-05T06:30:29;18.40;37.90
18624;DHT22;9441;51.420;7.036;2022-07-05T06:31:32;18.50;1.00
18624;DHT22;9441;51.420;7.036;2022-07-05T06:32:33;18.50;1.00
18624;DHT22;9441;51.420;7.036;2022-07-05T06:33:35;18.70;1.00
18624;DHT22;9441;51.420;7.036;2022-07-05T06:34:36;18.70;1.00
18624;DHT22;9441;51.420;7.036;2022-07-05T06:35:39;18.70;1.00
18624;DHT22;9441;51.420;7.036;2022-07-05T06:36:41;18.80;1.00
18624;DHT22;9441;51.420;7.036;2022-07-05T06:37:44;18.80;1.00
18624;DHT22;9441;51.420;7.036;2022-07-05T06:38:46;18.90;99.90
18624;DHT22;9441;51.420;7.036;2022-07-05T06:39:48;18.90;99.90
18624;DHT22;9441;51.420;7.036;2022-07-05T06:40:49;18.90;99.90
18624;DHT22;9441;51.420;7.036;2022-07-05T06:41:51;19.00;62.10
18624;DHT22;9441;51.420;7.036;2022-07-05T06:42:54;19.10;23.40
18624;DHT22;9441;51.420;7.036;2022-07-05T06:43:59;19.10;5.10